AWC955 SUMU-SGAS
Flight info
| Callsign | AWC955 |
|---|---|
| Flight time | N/A |
| Altitude | 37000 |
| Route | VUKAS UM402 KONTO KONTO |
| Aircraft | A320/M-SDE3FGHIRWY/LB1 |
Departure
| Time | 2026-04-29 20:23 |
|---|---|
| Airport | Carrasco General Cesáreo L. Berisso International Airport (SUMU) |
Arrival
| Time | N/A |
|---|---|
| Airport | Silvio Pettirossi International Airport (SGAS) |
| Time | Latitude | Longitude | Altitude | Speed | Heading |
|---|---|---|---|---|---|
| 2026-04-29 20:16 | -34.83539 | -56.01838 | 86 ft | 0 kts | 233° |
| 2026-04-29 20:18 | -34.83544 | -56.01846 | 86 ft | 2 kts | 233° |
| 2026-04-29 20:18 | -34.83559 | -56.01871 | 86 ft | 5 kts | 233° |
| 2026-04-29 20:19 | -34.83584 | -56.01911 | 84 ft | 7 kts | 233° |
| 2026-04-29 20:19 | -34.83618 | -56.01967 | 83 ft | 9 kts | 233° |
| 2026-04-29 20:19 | -34.83662 | -56.02039 | 84 ft | 12 kts | 233° |
| 2026-04-29 20:19 | -34.83715 | -56.02125 | 84 ft | 14 kts | 233° |
| 2026-04-29 20:20 | -34.83779 | -56.02222 | 82 ft | 15 kts | 220° |
| 2026-04-29 20:20 | -34.83888 | -56.02243 | 83 ft | 17 kts | 182° |
| 2026-04-29 20:20 | -34.83946 | -56.02341 | 82 ft | 17 kts | 272° |
| 2026-04-29 20:20 | -34.83945 | -56.02490 | 82 ft | 18 kts | 270° |
| 2026-04-29 20:21 | -34.83951 | -56.02651 | 83 ft | 20 kts | 261° |
| 2026-04-29 20:21 | -34.83989 | -56.02766 | 87 ft | 11 kts | 245° |
| 2026-04-29 20:21 | -34.84010 | -56.02859 | 82 ft | 12 kts | 264° |
| 2026-04-29 20:21 | -34.84010 | -56.02972 | 85 ft | 14 kts | 272° |
| 2026-04-29 20:22 | -34.83978 | -56.03075 | 83 ft | 13 kts | 344° |
| 2026-04-29 20:22 | -34.83967 | -56.03076 | 85 ft | 2 kts | 353° |
| 2026-04-29 20:22 | -34.83873 | -56.03077 | 84 ft | 47 kts | 359° |
| 2026-04-29 20:22 | -34.83256 | -56.03088 | 83 ft | 126 kts | 358° |
| 2026-04-29 20:23 | -34.82266 | -56.03061 | 559 ft | 137 kts | 0° |
| 2026-04-29 20:23 | -34.81353 | -56.02869 | 1286 ft | 138 kts | 4° |
| 2026-04-29 20:23 | -34.80343 | -56.02527 | 1703 ft | 163 kts | 4° |
| 2026-04-29 20:23 | -34.79049 | -56.02475 | 1656 ft | 212 kts | 347° |
| 2026-04-29 20:24 | -34.77474 | -56.02769 | 1646 ft | 244 kts | 344° |
| 2026-04-29 20:24 | -34.75782 | -56.03146 | 2395 ft | 250 kts | 343° |
| 2026-04-29 20:24 | -34.74051 | -56.03524 | 3265 ft | 255 kts | 343° |
| 2026-04-29 20:24 | -34.72278 | -56.03894 | 4091 ft | 261 kts | 344° |
| 2026-04-29 20:25 | -34.70454 | -56.04257 | 4885 ft | 268 kts | 343° |
| 2026-04-29 20:25 | -34.68601 | -56.04614 | 5733 ft | 270 kts | 343° |
| 2026-04-29 20:25 | -34.66746 | -56.04962 | 6630 ft | 270 kts | 343° |
| 2026-04-29 20:25 | -34.64901 | -56.05304 | 7425 ft | 273 kts | 343° |
| 2026-04-29 20:26 | -34.63013 | -56.05652 | 8174 ft | 277 kts | 343° |
| 2026-04-29 20:26 | -34.61084 | -56.06007 | 8930 ft | 282 kts | 343° |
| 2026-04-29 20:26 | -34.59126 | -56.06369 | 9646 ft | 287 kts | 343° |
| 2026-04-29 20:26 | -34.57136 | -56.06739 | 10317 ft | 292 kts | 343° |
| 2026-04-29 20:27 | -34.55116 | -56.07113 | 10980 ft | 296 kts | 343° |
| 2026-04-29 20:27 | -34.53761 | -56.07363 | 11427 ft | 298 kts | 343° |
| 2026-04-29 20:27 | -34.50998 | -56.07868 | 12321 ft | 303 kts | 344° |
| 2026-04-29 20:27 | -34.48899 | -56.08251 | 12990 ft | 306 kts | 344° |
| 2026-04-29 20:28 | -34.46783 | -56.08637 | 13648 ft | 310 kts | 344° |
| 2026-04-29 20:28 | -34.44635 | -56.09029 | 14243 ft | 313 kts | 344° |
| 2026-04-29 20:28 | -34.42471 | -56.09425 | 14850 ft | 316 kts | 344° |
| 2026-04-29 20:28 | -34.40288 | -56.09827 | 15456 ft | 318 kts | 344° |
| 2026-04-29 20:29 | -34.38094 | -56.10231 | 16060 ft | 320 kts | 343° |
| 2026-04-29 20:29 | -34.35883 | -56.10634 | 16659 ft | 322 kts | 343° |
| 2026-04-29 20:29 | -34.33660 | -56.11039 | 17263 ft | 325 kts | 343° |
| 2026-04-29 20:29 | -34.31444 | -56.11434 | 17864 ft | 327 kts | 343° |
| 2026-04-29 20:30 | -34.29186 | -56.11823 | 18427 ft | 330 kts | 344° |
| 2026-04-29 20:30 | -34.26906 | -56.12210 | 18949 ft | 332 kts | 343° |
| 2026-04-29 20:30 | -34.24614 | -56.12597 | 19482 ft | 334 kts | 343° |
| 2026-04-29 20:30 | -34.22308 | -56.12985 | 20019 ft | 335 kts | 343° |
| 2026-04-29 20:31 | -34.19991 | -56.13379 | 20542 ft | 337 kts | 343° |
| 2026-04-29 20:31 | -34.17658 | -56.13777 | 21054 ft | 339 kts | 343° |
| 2026-04-29 20:31 | -34.15315 | -56.14175 | 21552 ft | 341 kts | 343° |
| 2026-04-29 20:31 | -34.12957 | -56.14574 | 22039 ft | 343 kts | 343° |
| 2026-04-29 20:32 | -34.10599 | -56.14975 | 22523 ft | 345 kts | 343° |
| 2026-04-29 20:32 | -34.08202 | -56.15382 | 23007 ft | 347 kts | 343° |
| 2026-04-29 20:32 | -34.05807 | -56.15790 | 23485 ft | 349 kts | 343° |
| 2026-04-29 20:32 | -34.04210 | -56.16061 | 23771 ft | 351 kts | 343° |
| 2026-04-29 20:33 | -34.00993 | -56.16606 | 24312 ft | 353 kts | 343° |
| 2026-04-29 20:33 | -33.98552 | -56.17020 | 24719 ft | 355 kts | 343° |
| 2026-04-29 20:33 | -33.96108 | -56.17434 | 25128 ft | 356 kts | 343° |
| 2026-04-29 20:33 | -33.93645 | -56.17852 | 25536 ft | 358 kts | 343° |
| 2026-04-29 20:34 | -33.91169 | -56.18275 | 25940 ft | 360 kts | 343° |
| 2026-04-29 20:34 | -33.88690 | -56.18697 | 26336 ft | 362 kts | 343° |
| 2026-04-29 20:34 | -33.86187 | -56.19122 | 26730 ft | 364 kts | 343° |
| 2026-04-29 20:34 | -33.83668 | -56.19549 | 27125 ft | 366 kts | 343° |
| 2026-04-29 20:35 | -33.81140 | -56.19978 | 27523 ft | 368 kts | 343° |
| 2026-04-29 20:35 | -33.78606 | -56.20408 | 27907 ft | 370 kts | 343° |
| 2026-04-29 20:35 | -33.76049 | -56.20837 | 28310 ft | 372 kts | 343° |
| 2026-04-29 20:35 | -33.73480 | -56.21266 | 28703 ft | 374 kts | 343° |
| 2026-04-29 20:36 | -33.70896 | -56.21699 | 29099 ft | 376 kts | 343° |
| 2026-04-29 20:36 | -33.68303 | -56.22136 | 29484 ft | 378 kts | 343° |
| 2026-04-29 20:36 | -33.65689 | -56.22577 | 29860 ft | 380 kts | 343° |
| 2026-04-29 20:36 | -33.63094 | -56.23013 | 30188 ft | 383 kts | 343° |
| 2026-04-29 20:37 | -33.60447 | -56.23455 | 30492 ft | 385 kts | 343° |
| 2026-04-29 20:37 | -33.57785 | -56.23900 | 30791 ft | 387 kts | 343° |
| 2026-04-29 20:37 | -33.55107 | -56.24350 | 31081 ft | 390 kts | 343° |
| 2026-04-29 20:37 | -33.52411 | -56.24804 | 31368 ft | 392 kts | 343° |
| 2026-04-29 20:38 | -33.49699 | -56.25259 | 31632 ft | 395 kts | 343° |
| 2026-04-29 20:38 | -33.46973 | -56.25715 | 31910 ft | 397 kts | 343° |
| 2026-04-29 20:38 | -33.44230 | -56.26175 | 32174 ft | 399 kts | 343° |
| 2026-04-29 20:38 | -33.41465 | -56.26638 | 32426 ft | 402 kts | 343° |
| 2026-04-29 20:39 | -33.38690 | -56.27103 | 32673 ft | 404 kts | 343° |
| 2026-04-29 20:39 | -33.35895 | -56.27572 | 32939 ft | 406 kts | 343° |
| 2026-04-29 20:39 | -33.33095 | -56.28039 | 33192 ft | 408 kts | 343° |
| 2026-04-29 20:39 | -33.30265 | -56.28508 | 33448 ft | 411 kts | 343° |
| 2026-04-29 20:40 | -33.27470 | -56.28973 | 33686 ft | 413 kts | 343° |
| 2026-04-29 20:40 | -33.24615 | -56.29446 | 33929 ft | 415 kts | 344° |
| 2026-04-29 20:40 | -33.21742 | -56.29923 | 34136 ft | 417 kts | 343° |
| 2026-04-29 20:40 | -33.18859 | -56.30402 | 34355 ft | 419 kts | 343° |
| 2026-04-29 20:41 | -33.15964 | -56.30884 | 34569 ft | 421 kts | 343° |
| 2026-04-29 20:41 | -33.13056 | -56.31370 | 34765 ft | 422 kts | 343° |
| 2026-04-29 20:41 | -33.10145 | -56.31854 | 34987 ft | 424 kts | 343° |
| 2026-04-29 20:41 | -33.07216 | -56.32337 | 35204 ft | 425 kts | 343° |
| 2026-04-29 20:42 | -33.04275 | -56.32822 | 35415 ft | 427 kts | 343° |
| 2026-04-29 20:42 | -33.01329 | -56.33309 | 35617 ft | 428 kts | 343° |
| 2026-04-29 20:42 | -32.98377 | -56.33801 | 35818 ft | 429 kts | 343° |
| 2026-04-29 20:42 | -32.95420 | -56.34293 | 36015 ft | 430 kts | 343° |
| 2026-04-29 20:43 | -32.92448 | -56.34783 | 36209 ft | 432 kts | 343° |
| 2026-04-29 20:43 | -32.89462 | -56.35272 | 36392 ft | 433 kts | 343° |
| 2026-04-29 20:43 | -32.86477 | -56.35758 | 36582 ft | 434 kts | 343° |
| 2026-04-29 20:43 | -32.83483 | -56.36250 | 36748 ft | 435 kts | 343° |
| 2026-04-29 20:44 | -32.80516 | -56.36740 | 36919 ft | 436 kts | 342° |
| 2026-04-29 20:44 | -32.77506 | -56.37239 | 36970 ft | 437 kts | 342° |
| 2026-04-29 20:44 | -32.71483 | -56.38234 | 36974 ft | 437 kts | 343° |
| 2026-04-29 20:45 | -32.65449 | -56.39227 | 36973 ft | 437 kts | 342° |
| 2026-04-29 20:45 | -32.59420 | -56.40225 | 36978 ft | 438 kts | 342° |
| 2026-04-29 20:46 | -32.53383 | -56.41220 | 36978 ft | 438 kts | 342° |
| 2026-04-29 20:46 | -32.47344 | -56.42204 | 36974 ft | 439 kts | 342° |
| 2026-04-29 20:47 | -32.41283 | -56.43190 | 36982 ft | 439 kts | 342° |
| 2026-04-29 20:47 | -32.36256 | -56.44014 | 36986 ft | 439 kts | 342° |
| 2026-04-29 20:48 | -32.29220 | -56.45170 | 36995 ft | 440 kts | 342° |
| 2026-04-29 20:48 | -32.23157 | -56.46161 | 37001 ft | 440 kts | 342° |
| 2026-04-29 20:49 | -32.17093 | -56.47143 | 36999 ft | 440 kts | 342° |
| 2026-04-29 20:49 | -32.11026 | -56.48132 | 37008 ft | 440 kts | 342° |
| 2026-04-29 20:50 | -32.04951 | -56.49120 | 37007 ft | 440 kts | 342° |
| 2026-04-29 20:50 | -31.98884 | -56.50101 | 37009 ft | 440 kts | 342° |
| 2026-04-29 20:51 | -31.92813 | -56.51070 | 37009 ft | 440 kts | 342° |
| 2026-04-29 20:51 | -31.86774 | -56.52044 | 37013 ft | 440 kts | 342° |
| 2026-04-29 20:52 | -31.80708 | -56.53031 | 37019 ft | 440 kts | 342° |
| 2026-04-29 20:52 | -31.74637 | -56.54019 | 37020 ft | 441 kts | 342° |
| 2026-04-29 20:53 | -31.69586 | -56.54830 | 37017 ft | 441 kts | 342° |
| 2026-04-29 20:53 | -31.63511 | -56.55804 | 37017 ft | 441 kts | 342° |
| 2026-04-29 20:54 | -31.54390 | -56.57260 | 37015 ft | 441 kts | 342° |
| 2026-04-29 20:55 | -31.48306 | -56.58236 | 37017 ft | 441 kts | 342° |
| 2026-04-29 20:55 | -31.42227 | -56.59215 | 37021 ft | 441 kts | 342° |
| 2026-04-29 20:56 | -31.36149 | -56.60192 | 37026 ft | 441 kts | 342° |
| 2026-04-29 20:56 | -31.30097 | -56.61151 | 37024 ft | 441 kts | 342° |
| 2026-04-29 20:57 | -31.24014 | -56.62113 | 37026 ft | 441 kts | 342° |
| 2026-04-29 20:57 | -31.17934 | -56.63081 | 37023 ft | 441 kts | 342° |
| 2026-04-29 20:58 | -31.11844 | -56.64052 | 37019 ft | 441 kts | 342° |
| 2026-04-29 20:58 | -31.05763 | -56.65016 | 37011 ft | 441 kts | 342° |
| 2026-04-29 20:59 | -30.99680 | -56.65976 | 37009 ft | 441 kts | 342° |
| 2026-04-29 20:59 | -30.93598 | -56.66938 | 37020 ft | 441 kts | 342° |
| 2026-04-29 21:00 | -30.87508 | -56.67903 | 37014 ft | 441 kts | 342° |
| 2026-04-29 21:00 | -30.81428 | -56.68865 | 37016 ft | 441 kts | 342° |
| 2026-04-29 21:01 | -30.75347 | -56.69824 | 37018 ft | 441 kts | 342° |
| 2026-04-29 21:01 | -30.69296 | -56.70771 | 37014 ft | 441 kts | 342° |
| 2026-04-29 21:02 | -30.63214 | -56.71728 | 37008 ft | 441 kts | 342° |
| 2026-04-29 21:02 | -30.57143 | -56.72687 | 37015 ft | 440 kts | 341° |
| 2026-04-29 21:03 | -30.51077 | -56.73648 | 37020 ft | 440 kts | 342° |
| 2026-04-29 21:03 | -30.45005 | -56.74605 | 37014 ft | 440 kts | 342° |
| 2026-04-29 21:04 | -30.38944 | -56.75541 | 37015 ft | 439 kts | 342° |
| 2026-04-29 21:04 | -30.32894 | -56.76484 | 37014 ft | 439 kts | 342° |
| 2026-04-29 21:05 | -30.26840 | -56.77433 | 37016 ft | 438 kts | 341° |
| 2026-04-29 21:05 | -30.20843 | -56.78378 | 37010 ft | 438 kts | 341° |
| 2026-04-29 21:06 | -30.14808 | -56.79322 | 37009 ft | 438 kts | 342° |
| 2026-04-29 21:06 | -30.08763 | -56.80265 | 37011 ft | 437 kts | 341° |
| 2026-04-29 21:07 | -30.02743 | -56.81229 | 37009 ft | 437 kts | 341° |
| 2026-04-29 21:07 | -29.96732 | -56.82206 | 37010 ft | 436 kts | 341° |
| 2026-04-29 21:08 | -29.90719 | -56.83180 | 37011 ft | 436 kts | 341° |
| 2026-04-29 21:08 | -29.84717 | -56.84151 | 37011 ft | 436 kts | 341° |
| 2026-04-29 21:09 | -29.78714 | -56.85103 | 37015 ft | 435 kts | 342° |
| 2026-04-29 21:09 | -29.72747 | -56.86048 | 37013 ft | 435 kts | 341° |
| 2026-04-29 21:10 | -29.66757 | -56.87010 | 37011 ft | 435 kts | 341° |
| 2026-04-29 21:10 | -29.60771 | -56.87974 | 37018 ft | 434 kts | 341° |
| 2026-04-29 21:11 | -29.54775 | -56.88928 | 37014 ft | 434 kts | 342° |
| 2026-04-29 21:11 | -29.48790 | -56.89864 | 37010 ft | 434 kts | 342° |
| 2026-04-29 21:12 | -29.42804 | -56.90782 | 37009 ft | 434 kts | 342° |
| 2026-04-29 21:12 | -29.36820 | -56.91698 | 37011 ft | 434 kts | 342° |
| 2026-04-29 21:13 | -29.30842 | -56.92616 | 37014 ft | 433 kts | 342° |
| 2026-04-29 21:13 | -29.24857 | -56.93535 | 37011 ft | 433 kts | 342° |
| 2026-04-29 21:14 | -29.18928 | -56.94446 | 37010 ft | 433 kts | 342° |
| 2026-04-29 21:14 | -29.12957 | -56.95359 | 37011 ft | 433 kts | 342° |
| 2026-04-29 21:15 | -29.06983 | -56.96273 | 37009 ft | 433 kts | 342° |
| 2026-04-29 21:15 | -29.01018 | -56.97178 | 37011 ft | 432 kts | 342° |
| 2026-04-29 21:16 | -28.95059 | -56.98084 | 37014 ft | 432 kts | 342° |
| 2026-04-29 21:16 | -28.89099 | -56.98982 | 37015 ft | 432 kts | 342° |
| 2026-04-29 21:17 | -28.83132 | -56.99886 | 37010 ft | 432 kts | 342° |
| 2026-04-29 21:17 | -28.77176 | -57.00788 | 37010 ft | 432 kts | 343° |
| 2026-04-29 21:18 | -28.71220 | -57.01686 | 37010 ft | 432 kts | 343° |
| 2026-04-29 21:18 | -28.65306 | -57.02575 | 37007 ft | 432 kts | 343° |
| 2026-04-29 21:19 | -28.59342 | -57.03472 | 37008 ft | 432 kts | 343° |
| 2026-04-29 21:19 | -28.53376 | -57.04371 | 37012 ft | 432 kts | 343° |
| 2026-04-29 21:20 | -28.52376 | -57.04522 | 37011 ft | 432 kts | 343° |